KBLH

Blythe Airport

Blythe, California, USA
METAR KBLH 171752Z AUTO 04008KT 10SM CLR 22/05 A3011 RMK AO2 SLP193 T02220050 10222 20139 50001
Observed Flight Rules
Oct-17 @ 17:52 UTC (28 minutes ago) Visual Flight Rules
Wind Visibility Clouds
40° at 8 knots 10 miles
  • Clear skies
Temperatures Readings
Current 22°C / 72°F
Dewpoint 5°C / 41°F
Humidity 33%
Altimeter 30.11" Hg
Pressure 1019.3 hPa
Elevation 119
METAR KBLH 171752Z AUTO 04008KT 10SM CLR 22/05 A3011 RMK AO2 SLP193 T02220050 10222 20139 50001
Observed Flight Rules
Oct-17 @ 17:52 UTC
(28 minutes ago)
VFR
Wind Visibility
40° at 8 knots 10 miles
Clouds
  • Clear skies
Temperature Dewpoint
22°C / 72°F 5°C / 41°F
Humidity Altimeter Pressure
33% 30.11" Hg 1019.3 hPa